Time;durP1;ratioP1;P1;durP2;ratioP2;P2;SDS_P1;SDS_P2;PMS_P1;PMS_P2;Temp;Humidity;BMP_temperature;BMP_pressure;BME280_temperature;BME280_humidity;BME280_pressure;Samples;Min_cycle;Max_cycle;Signal;HPM_P1;HPM_P2
2023/05/29 00:00:33;;;;;;;8.90;4.50;;;;;;;11.02;66.42;98079.73;106550;1277;24364;-80
2023/05/29 00:03:21;;;;;;;7.80;3.90;;;;;;;11.01;66.74;98080.71;106850;1277;25178;-79
2023/05/29 00:05:49;;;;;;;7.90;4.20;;;;;;;10.98;67.13;98076.67;107073;1277;22509;-80
2023/05/29 00:08:17;;;;;;;6.00;4.00;;;;;;;10.95;67.31;98076.98;106828;1277;24203;-79
2023/05/29 00:10:45;;;;;;;8.80;4.10;;;;;;;10.91;67.61;98076.85;106729;1277;25274;-79
2023/05/29 00:13:13;;;;;;;9.10;4.00;;;;;;;10.87;67.37;98079.45;107082;1277;22729;-80
2023/05/29 00:15:41;;;;;;;9.80;4.50;;;;;;;10.83;67.47;98076.94;107006;1277;24361;-80
2023/05/29 00:18:09;;;;;;;6.60;4.00;;;;;;;10.80;67.44;98073.70;106774;1277;25362;-79
2023/05/29 00:20:38;;;;;;;8.10;3.80;;;;;;;10.77;67.51;98074.39;106598;1277;25267;-80
2023/05/29 00:23:06;;;;;;;9.50;3.80;;;;;;;10.76;67.59;98068.38;106797;1277;25610;-80
2023/05/29 00:25:34;;;;;;;6.10;4.10;;;;;;;10.78;68.20;98065.20;106520;1277;22514;-78
2023/05/29 00:28:02;;;;;;;7.50;4.20;;;;;;;10.77;68.27;98064.48;106772;1277;22629;-79
2023/05/29 00:30:30;;;;;;;5.90;4.00;;;;;;;10.75;68.19;98062.09;106812;1277;24133;-80
2023/05/29 00:32:58;;;;;;;10.80;4.30;;;;;;;10.72;67.99;98063.80;106945;1277;24245;-79
2023/05/29 00:35:27;;;;;;;9.50;3.80;;;;;;;10.69;67.54;98063.52;106529;1277;22523;-78
2023/05/29 00:37:55;;;;;;;9.80;3.80;;;;;;;10.67;67.60;98065.17;106706;1277;25409;-80
2023/05/29 00:40:23;;;;;;;11.10;3.90;;;;;;;10.67;67.40;98065.61;106836;1277;24081;-79
2023/05/29 00:42:51;;;;;;;7.50;4.20;;;;;;;10.67;67.25;98067.27;106775;1277;24327;-78
2023/05/29 00:45:19;;;;;;;6.30;4.20;;;;;;;10.65;67.22;98066.17;106866;1277;25294;-78
2023/05/29 00:47:47;;;;;;;5.90;4.40;;;;;;;10.62;67.36;98064.67;106795;1277;25326;-78
2023/05/29 00:50:16;;;;;;;6.60;3.90;;;;;;;10.60;67.26;98061.41;106879;1277;25459;-79
2023/05/29 00:52:45;;;;;;;9.40;4.10;;;;;;;10.60;67.00;98061.15;106666;1277;22725;-78
2023/05/29 00:55:14;;;;;;;8.70;4.20;;;;;;;10.61;67.09;98061.95;106858;1277;25340;-79
2023/05/29 00:57:42;;;;;;;8.20;4.00;;;;;;;10.61;67.35;98056.05;106872;1277;24130;-78
2023/05/29 01:00:13;;;;;;;14.90;3.70;;;;;;;10.61;67.38;98059.56;106691;1277;22534;-78
2023/05/29 01:02:45;;;;;;;7.60;3.90;;;;;;;10.61;67.41;98054.88;106833;1277;22553;-78
2023/05/29 01:05:14;;;;;;;6.70;4.20;;;;;;;10.58;67.67;98052.17;106900;1277;22548;-78
2023/05/29 01:07:42;;;;;;;5.90;3.80;;;;;;;10.54;67.88;98048.37;106849;1277;25468;-78
2023/05/29 01:10:11;;;;;;;9.60;4.70;;;;;;;10.49;68.17;98047.42;106806;1277;22638;-79
2023/05/29 01:13:31;;;;;;;6.60;4.10;;;;;;;10.44;68.05;98048.58;106859;1277;25548;-78
2023/05/29 01:16:27;;;;;;;5.40;3.90;;;;;;;10.39;68.63;98043.23;106070;1285;25207;-78
2023/05/29 01:19:14;;;;;;;6.30;4.20;;;;;;;10.38;68.52;98046.73;106307;1285;22803;-77
2023/05/29 01:22:14;;;;;;;9.30;3.90;;;;;;;10.39;69.09;98039.51;106065;1285;25337;-78
2023/05/29 01:24:58;;;;;;;19.60;4.40;;;;;;;10.40;69.54;98040.81;106251;1285;22625;-78
2023/05/29 01:27:30;;;;;;;5.80;4.00;;;;;;;10.40;69.66;98043.84;106267;1285;22686;-78
2023/05/29 01:30:00;;;;;;;6.90;3.60;;;;;;;10.40;69.49;98042.88;106251;1285;25256;-78
2023/05/29 01:32:30;;;;;;;6.90;3.70;;;;;;;10.38;69.59;98039.19;106261;1285;22535;-78
2023/05/29 01:34:58;;;;;;;7.30;4.20;;;;;;;10.36;69.32;98037.24;106042;1285;24298;-79
2023/05/29 01:37:27;;;;;;;5.50;3.80;;;;;;;10.33;69.46;98036.94;106079;1285;24231;-78
2023/05/29 01:39:56;;;;;;;7.40;4.30;;;;;;;10.31;69.48;98039.67;106160;1285;22572;-78
2023/05/29 01:42:28;;;;;;;10.40;4.60;;;;;;;10.31;69.50;98037.88;106186;1285;23210;-79
2023/05/29 01:44:58;;;;;;;13.40;3.90;;;;;;;10.35;69.34;98041.73;106386;1285;22727;-78
2023/05/29 01:47:27;;;;;;;7.10;4.00;;;;;;;10.39;69.14;98041.88;106248;1285;22565;-79
2023/05/29 01:49:56;;;;;;;8.80;5.30;;;;;;;10.40;69.11;98040.17;106233;1273;25388;-79
2023/05/29 01:52:24;;;;;;;9.70;4.80;;;;;;;10.41;69.15;98045.94;106747;1277;25611;-79
2023/05/29 01:54:52;;;;;;;9.20;4.30;;;;;;;10.35;69.27;98046.73;106792;1277;22551;-79
2023/05/29 01:57:20;;;;;;;5.30;3.90;;;;;;;10.26;69.24;98043.03;106816;1276;22742;-79
2023/05/29 01:59:49;;;;;;;7.80;4.60;;;;;;;10.17;69.25;98039.71;106860;1277;22640;-79
2023/05/29 02:02:18;;;;;;;7.20;4.00;;;;;;;10.08;69.32;98036.50;106856;1277;25271;-79
2023/05/29 02:04:46;;;;;;;7.60;4.40;;;;;;;9.97;69.44;98035.67;106931;1277;22640;-80
2023/05/29 02:07:15;;;;;;;6.90;4.40;;;;;;;9.89;69.50;98035.96;106913;1277;22534;-79
2023/05/29 02:09:43;;;;;;;7.30;4.30;;;;;;;9.79;69.83;98027.75;106879;1276;26700;-79
2023/05/29 02:12:11;;;;;;;7.50;4.10;;;;;;;9.69;69.74;98031.02;106834;1277;24695;-79
2023/05/29 02:14:40;;;;;;;6.00;3.90;;;;;;;9.60;70.90;98027.79;106753;1277;22536;-78
2023/05/29 02:17:10;;;;;;;8.40;4.10;;;;;;;9.49;71.25;98031.84;106777;1263;22570;-78
2023/05/29 02:19:38;;;;;;;8.70;4.50;;;;;;;9.38;71.82;98032.30;106811;1277;22531;-78
2023/05/29 02:22:07;;;;;;;7.30;4.60;;;;;;;9.28;72.23;98030.96;106865;1277;22520;-78
2023/05/29 02:24:35;;;;;;;6.30;4.00;;;;;;;9.18;72.55;98026.61;106911;1277;24184;-77
2023/05/29 02:27:04;;;;;;;7.50;4.50;;;;;;;9.07;72.55;98025.92;106832;1277;24050;-78
2023/05/29 02:29:32;;;;;;;7.80;4.50;;;;;;;8.98;72.08;98027.75;106912;1277;24196;-78
2023/05/29 02:32:00;;;;;;;5.40;4.00;;;;;;;8.94;72.59;98025.80;106883;1277;22928;-78
2023/05/29 02:34:29;;;;;;;8.20;4.30;;;;;;;8.89;72.88;98023.44;106870;1277;22555;-78
2023/05/29 02:36:57;;;;;;;8.40;4.40;;;;;;;8.89;73.16;98022.37;106796;1277;22577;-77
2023/05/29 02:39:25;;;;;;;7.50;4.30;;;;;;;8.82;74.36;98030.70;106885;1277;22527;-77
2023/05/29 02:41:54;;;;;;;8.30;4.70;;;;;;;8.73;74.53;98030.73;106843;1277;22520;-78
2023/05/29 02:44:22;;;;;;;6.30;4.60;;;;;;;8.66;74.78;98030.10;106985;1277;22991;-78
2023/05/29 02:46:51;;;;;;;7.70;4.40;;;;;;;8.61;75.00;98031.38;107000;1277;22543;-78
2023/05/29 02:49:20;;;;;;;7.10;4.20;;;;;;;8.59;75.32;98038.33;107004;1277;23650;-78
2023/05/29 02:51:48;;;;;;;8.40;4.20;;;;;;;8.60;75.10;98030.95;106953;1277;27761;-80
2023/05/29 02:54:16;;;;;;;6.40;4.20;;;;;;;8.65;75.48;98029.25;106951;1277;22646;-79
2023/05/29 02:56:44;;;;;;;7.90;4.80;;;;;;;8.67;75.10;98029.02;106791;1275;22680;-79
2023/05/29 02:59:12;;;;;;;10.60;4.40;;;;;;;8.66;75.09;98026.92;106579;1277;25484;-78
2023/05/29 03:01:40;;;;;;;6.00;4.60;;;;;;;8.63;74.79;98029.80;106752;1277;24282;-79
2023/05/29 03:04:09;;;;;;;8.50;4.70;;;;;;;8.61;74.52;98027.84;106929;1277;24375;-79
2023/05/29 03:06:37;;;;;;;8.70;4.40;;;;;;;8.58;74.69;98023.41;106957;1277;22633;-79
2023/05/29 03:09:07;;;;;;;5.70;4.20;;;;;;;8.52;76.39;98022.98;106721;1277;22511;-79
2023/05/29 03:11:36;;;;;;;8.50;4.60;;;;;;;8.45;75.54;98018.78;106947;1277;24189;-79
2023/05/29 03:14:04;;;;;;;5.40;4.30;;;;;;;8.47;75.38;98016.36;106640;1277;23062;-79
2023/05/29 03:16:32;;;;;;;7.60;4.30;;;;;;;8.49;75.19;98012.90;106746;1277;24398;-78
2023/05/29 03:19:00;;;;;;;6.30;4.90;;;;;;;8.50;75.76;98012.36;106683;1277;26042;-79
2023/05/29 03:21:31;;;;;;;6.70;4.60;;;;;;;8.44;76.11;98007.20;106772;1277;22566;-79
2023/05/29 03:24:00;;;;;;;6.60;4.50;;;;;;;8.39;76.90;98014.11;106675;1277;22663;-78
2023/05/29 03:26:29;;;;;;;6.70;4.50;;;;;;;8.36;77.57;98010.50;106650;1277;24202;-79
2023/05/29 03:28:57;;;;;;;7.80;4.50;;;;;;;8.32;76.98;98012.15;106845;1277;22530;-78
2023/05/29 03:31:25;;;;;;;6.60;4.80;;;;;;;8.34;77.19;98013.80;106721;1277;22663;-78
2023/05/29 03:33:53;;;;;;;9.40;6.10;;;;;;;8.35;78.10;98014.86;106709;1277;25429;-77
2023/05/29 03:36:24;;;;;;;8.10;6.80;;;;;;;8.35;78.11;98014.71;106593;1277;23145;-79
2023/05/29 03:38:53;;;;;;;7.00;5.00;;;;;;;8.38;78.40;98013.07;106843;1277;24362;-78
2023/05/29 03:41:21;;;;;;;8.50;4.70;;;;;;;8.42;78.77;98013.56;106701;1277;22939;-77
2023/05/29 03:43:51;;;;;;;6.50;4.80;;;;;;;8.45;78.57;98015.89;106606;1277;22587;-78
2023/05/29 03:46:20;;;;;;;10.40;5.00;;;;;;;8.50;78.14;98021.21;106604;1277;25393;-78
2023/05/29 03:48:49;;;;;;;7.60;5.40;;;;;;;8.57;78.24;98019.39;107237;1277;22580;-77
2023/05/29 03:51:17;;;;;;;9.70;5.80;;;;;;;8.65;77.92;98023.98;106599;1277;22726;-78
2023/05/29 03:53:45;;;;;;;8.50;5.70;;;;;;;8.76;77.78;98027.38;106768;1277;22524;-79
2023/05/29 03:56:13;;;;;;;9.50;6.30;;;;;;;8.90;77.68;98027.02;106990;1277;22521;-79
2023/05/29 03:58:41;;;;;;;9.50;6.20;;;;;;;9.02;77.92;98029.70;106784;1277;23899;-78
2023/05/29 04:01:10;;;;;;;10.70;6.30;;;;;;;9.14;78.02;98031.72;106558;1277;22513;-80
2023/05/29 04:03:38;;;;;;;8.00;6.30;;;;;;;9.24;77.66;98031.08;106994;1277;22459;-78
2023/05/29 04:06:06;;;;;;;9.70;5.90;;;;;;;9.33;77.41;98028.98;106767;1277;22531;-78
2023/05/29 04:08:35;;;;;;;8.00;5.60;;;;;;;9.41;77.44;98030.48;106961;1277;22576;-78
2023/05/29 04:11:03;;;;;;;13.00;7.40;;;;;;;9.49;77.65;98028.13;106773;1277;24214;-78
2023/05/29 04:13:31;;;;;;;11.30;6.80;;;;;;;9.58;77.27;98030.08;106965;1277;22654;-78
2023/05/29 04:15:59;;;;;;;10.00;6.20;;;;;;;9.68;77.36;98031.30;106728;1277;22677;-78
2023/05/29 04:18:27;;;;;;;8.60;6.10;;;;;;;9.78;77.65;98031.46;106733;1277;25409;-78
2023/05/29 04:20:56;;;;;;;13.20;6.50;;;;;;;9.82;77.95;98032.66;106645;1277;22645;-78
2023/05/29 04:23:24;;;;;;;10.10;7.50;;;;;;;9.89;78.05;98031.33;106468;1268;22650;-78
2023/05/29 04:25:53;;;;;;;10.70;7.00;;;;;;;9.99;77.79;98039.91;106563;1277;22632;-78
2023/05/29 04:28:26;;;;;;;14.20;7.00;;;;;;;10.10;77.84;98044.12;106486;1277;22536;-78
2023/05/29 04:30:55;;;;;;;10.10;7.50;;;;;;;10.20;77.66;98043.10;106737;1277;22534;-78
2023/05/29 04:33:25;;;;;;;9.90;7.10;;;;;;;10.28;77.69;98044.23;106463;1277;24225;-78
2023/05/29 04:35:53;;;;;;;16.90;7.80;;;;;;;10.40;77.51;98040.28;106570;1277;23923;-78
2023/05/29 04:38:24;;;;;;;18.70;9.00;;;;;;;10.55;77.57;98042.79;106574;1277;25272;-78
2023/05/29 04:40:57;;;;;;;17.30;8.30;;;;;;;10.70;77.50;98036.02;106651;1277;22543;-79
2023/05/29 04:43:26;;;;;;;17.20;8.20;;;;;;;10.85;77.61;98039.31;106598;1277;24247;-78
2023/05/29 04:46:02;;;;;;;13.20;8.30;;;;;;;10.99;77.50;98041.45;106608;1277;22647;-78
2023/05/29 04:48:33;;;;;;;17.00;9.20;;;;;;;11.12;77.47;98045.67;106912;1277;22615;-79
2023/05/29 04:51:01;;;;;;;15.40;10.20;;;;;;;11.23;77.52;98041.33;106729;1272;25275;-78
2023/05/29 04:53:32;;;;;;;15.60;10.30;;;;;;;11.35;77.43;98043.98;106723;1277;25399;-78
2023/05/29 04:56:00;;;;;;;18.20;10.30;;;;;;;11.46;77.28;98050.52;106494;1277;23919;-77
2023/05/29 04:58:29;;;;;;;18.10;9.50;;;;;;;11.56;77.27;98050.22;106490;1277;22788;-77
2023/05/29 05:00:59;;;;;;;22.20;9.10;;;;;;;11.70;77.17;98052.20;106787;1277;24738;-77
2023/05/29 05:03:30;;;;;;;20.00;10.30;;;;;;;11.85;77.03;98048.76;106844;1277;25350;-78
2023/05/29 05:06:03;;;;;;;29.70;13.30;;;;;;;12.00;76.92;98048.56;106495;1277;22662;-79
2023/05/29 05:08:32;;;;;;;37.80;16.70;;;;;;;12.14;76.90;98047.70;106881;1277;22645;-78
2023/05/29 05:11:02;;;;;;;27.70;16.20;;;;;;;12.28;76.81;98045.98;106652;1272;22797;-78
2023/05/29 05:13:30;;;;;;;25.70;18.90;;;;;;;12.38;76.75;98046.90;106436;1273;25022;-78
2023/05/29 05:15:58;;;;;;;22.80;18.20;;;;;;;12.48;76.83;98046.21;106857;1277;22670;-78
2023/05/29 05:18:28;;;;;;;21.00;18.90;;;;;;;12.57;76.51;98043.35;106647;1277;22531;-78
2023/05/29 05:21:03;;;;;;;21.50;18.80;;;;;;;12.68;76.40;98041.51;106705;1277;22566;-78
2023/05/29 05:23:33;;;;;;;24.60;17.70;;;;;;;12.80;76.06;98047.16;106706;1277;23220;-78
2023/05/29 05:26:16;;;;;;;19.00;15.70;;;;;;;12.93;76.03;98042.45;106704;1277;22630;-78
2023/05/29 05:28:44;;;;;;;18.80;14.30;;;;;;;13.05;75.78;98042.35;106475;1277;23453;-78
2023/05/29 05:31:13;;;;;;;19.10;13.00;;;;;;;13.15;75.74;98037.85;106620;1277;23061;-78
2023/05/29 05:33:41;;;;;;;35.10;11.10;;;;;;;13.24;75.48;98040.06;106598;1277;25275;-78
2023/05/29 05:36:10;;;;;;;14.50;10.90;;;;;;;13.33;75.47;98044.15;106760;1277;25221;-78
2023/05/29 05:38:40;;;;;;;16.40;10.20;;;;;;;13.43;75.18;98048.45;106702;1255;22528;-78
2023/05/29 05:41:08;;;;;;;17.40;11.60;;;;;;;13.47;74.97;98046.75;106638;1277;22531;-78
2023/05/29 05:43:36;;;;;;;17.60;10.30;;;;;;;13.54;74.61;98051.17;106573;1267;22569;-79
2023/05/29 05:46:18;;;;;;;18.70;11.60;;;;;;;13.64;74.79;98054.34;106530;1277;22541;-79
2023/05/29 05:48:46;;;;;;;21.00;10.20;;;;;;;13.73;74.23;98058.73;106479;1277;22730;-78
2023/05/29 05:51:14;;;;;;;16.90;9.20;;;;;;;13.79;73.49;98061.77;106635;1277;157992;-82
2023/05/29 05:53:43;;;;;;;15.10;8.90;;;;;;;13.81;73.23;98060.41;106664;1277;23155;-84
2023/05/29 05:56:11;;;;;;;22.20;9.80;;;;;;;13.89;73.33;98062.93;106537;1277;22637;-85
2023/05/29 05:58:39;;;;;;;15.20;8.00;;;;;;;13.99;73.47;98066.52;106606;1277;23154;-81
2023/05/29 06:01:10;;;;;;;14.90;7.70;;;;;;;14.11;73.13;98067.11;107028;1277;22538;-89
2023/05/29 06:03:38;;;;;;;16.90;7.00;;;;;;;14.24;73.41;98073.98;107058;1277;25455;-89
2023/05/29 06:06:08;;;;;;;11.80;6.10;;;;;;;14.44;73.42;98077.36;107184;1277;22563;-87
2023/05/29 06:08:41;;;;;;;12.20;7.00;;;;;;;14.71;73.81;98076.27;107005;1277;22569;-85
2023/05/29 06:11:09;;;;;;;11.40;6.20;;;;;;;14.88;72.98;98077.67;106949;1277;22529;-82
2023/05/29 06:13:39;;;;;;;10.10;6.60;;;;;;;14.87;72.56;98078.44;107061;1274;22718;-85
2023/05/29 06:16:11;;;;;;;14.10;6.60;;;;;;;14.91;72.57;98073.32;107631;1275;22673;-88
2023/05/29 06:18:39;;;;;;;8.90;6.60;;;;;;;14.94;72.76;98073.15;107551;1277;22579;-85
2023/05/29 06:21:09;;;;;;;10.60;6.20;;;;;;;15.11;72.51;98074.45;107229;1277;24295;-83
2023/05/29 06:23:41;;;;;;;15.60;6.80;;;;;;;15.37;72.80;98077.62;108724;1277;23283;-83
2023/05/29 06:26:11;;;;;;;14.10;6.10;;;;;;;15.68;72.04;98081.45;108934;1277;22562;-85
2023/05/29 06:28:39;;;;;;;13.50;7.40;;;;;;;15.79;71.21;98085.15;107054;1277;23311;-80
2023/05/29 06:31:08;;;;;;;13.10;6.90;;;;;;;15.80;71.08;98087.98;107007;1277;22524;-81
2023/05/29 06:33:37;;;;;;;17.40;6.80;;;;;;;15.83;70.50;98090.27;107012;1277;22590;-80
2023/05/29 06:36:06;;;;;;;13.30;6.20;;;;;;;15.83;69.90;98090.37;106993;1277;24088;-81
2023/05/29 06:38:35;;;;;;;30.60;6.80;;;;;;;15.89;70.34;98089.83;107037;1277;22491;-81
2023/05/29 06:41:03;;;;;;;17.90;7.80;;;;;;;15.95;69.64;98095.71;106850;1277;22605;-80
2023/05/29 06:43:33;;;;;;;13.20;6.80;;;;;;;15.96;69.68;98096.45;106940;1277;22627;-83
2023/05/29 06:46:03;;;;;;;16.00;10.40;;;;;;;16.10;69.80;98097.48;107133;1277;23279;-82
2023/05/29 06:48:35;;;;;;;13.50;6.50;;;;;;;16.22;69.64;98104.06;107663;1270;22513;-84
2023/05/29 06:51:08;;;;;;;12.10;6.70;;;;;;;16.31;68.35;98105.80;106854;1277;24362;-80
2023/05/29 06:53:49;;;;;;;37.80;15.30;;;;;;;16.26;68.36;98105.70;106878;1275;22570;-81
2023/05/29 06:56:17;;;;;;;25.00;12.40;;;;;;;16.27;68.51;98103.34;106850;1278;22555;-81
2023/05/29 06:58:46;;;;;;;14.30;6.50;;;;;;;16.36;68.43;98108.17;106725;1277;24417;-78
2023/05/29 07:01:16;;;;;;;9.40;5.70;;;;;;;16.42;67.17;98111.89;106792;1278;23384;-79
2023/05/29 07:04:01;;;;;;;14.30;6.00;;;;;;;16.45;67.15;98117.73;106811;1278;24324;-79
2023/05/29 07:06:30;;;;;;;12.00;5.90;;;;;;;16.56;67.94;98118.00;106524;1269;22672;-80
2023/05/29 07:09:00;;;;;;;8.30;5.80;;;;;;;16.74;67.76;98113.08;106577;1272;22535;-80
2023/05/29 07:11:28;;;;;;;12.30;5.40;;;;;;;16.87;66.41;98112.53;106891;1278;22524;-80
2023/05/29 07:13:56;;;;;;;12.50;5.50;;;;;;;16.89;64.97;98113.04;106895;1272;22687;-80
2023/05/29 07:16:25;;;;;;;9.20;5.10;;;;;;;16.88;64.95;98115.82;106516;1277;25399;-80
2023/05/29 07:18:58;;;;;;;8.50;5.30;;;;;;;17.00;66.19;98111.52;107015;1277;22622;-80
2023/05/29 07:21:26;;;;;;;11.70;5.40;;;;;;;17.24;66.39;98111.02;106850;1277;25498;-80
2023/05/29 07:23:54;;;;;;;10.20;4.60;;;;;;;17.41;65.50;98105.37;106927;1277;24296;-81
2023/05/29 07:26:22;;;;;;;8.20;5.20;;;;;;;17.48;65.31;98108.88;106930;1277;22671;-80
2023/05/29 07:28:51;;;;;;;10.70;5.20;;;;;;;17.60;65.72;98114.08;106559;1277;24433;-80
2023/05/29 07:31:19;;;;;;;9.70;4.90;;;;;;;17.74;64.41;98115.67;107017;1277;22689;-80
2023/05/29 07:33:48;;;;;;;8.30;4.70;;;;;;;17.82;64.40;98118.39;106969;1277;22648;-81
2023/05/29 07:36:18;;;;;;;9.20;5.00;;;;;;;17.96;64.66;98112.45;106884;1277;22582;-80
2023/05/29 07:38:47;;;;;;;7.40;4.90;;;;;;;18.08;64.20;98112.89;107158;1277;22620;-80
2023/05/29 07:41:17;;;;;;;15.60;5.30;;;;;;;18.14;62.92;98117.90;107398;1277;25312;-81
2023/05/29 07:43:52;;;;;;;12.80;5.00;;;;;;;18.14;63.42;98121.19;107251;1277;26497;-78
2023/05/29 07:46:20;;;;;;;12.50;5.10;;;;;;;18.18;63.28;98120.67;106736;1278;22522;-79
2023/05/29 07:48:51;;;;;;;17.20;5.60;;;;;;;18.33;63.42;98122.53;106905;1278;25249;-79
2023/05/29 07:51:20;;;;;;;11.00;5.00;;;;;;;18.45;63.15;98121.71;106912;1278;25084;-78
2023/05/29 07:53:49;;;;;;;11.50;4.50;;;;;;;18.58;62.01;98122.40;106866;1278;22565;-78
2023/05/29 07:56:17;;;;;;;8.70;4.50;;;;;;;18.64;61.26;98120.69;106853;1278;22743;-75
2023/05/29 07:58:46;;;;;;;8.60;5.10;;;;;;;18.68;61.55;98120.33;106689;1278;22524;-79
2023/05/29 08:01:14;;;;;;;12.00;4.50;;;;;;;18.78;62.11;98119.80;106806;1278;22558;-77
2023/05/29 08:03:43;;;;;;;10.60;5.10;;;;;;;18.94;61.45;98120.47;106533;1278;22520;-79
2023/05/29 08:06:32;;;;;;;7.70;4.40;;;;;;;19.09;60.97;98119.80;106528;1278;25281;-80
2023/05/29 08:09:01;;;;;;;11.80;4.40;;;;;;;19.20;61.38;98116.80;106874;1278;25256;-79
2023/05/29 08:11:30;;;;;;;7.00;4.40;;;;;;;19.35;61.26;98123.42;106839;1278;22593;-80
2023/05/29 08:13:59;;;;;;;8.80;5.10;;;;;;;19.50;61.11;98117.20;106840;1278;22518;-79
2023/05/29 08:16:27;;;;;;;11.00;4.70;;;;;;;19.70;61.18;98115.43;106625;1278;24281;-77
2023/05/29 08:18:55;;;;;;;9.10;4.60;;;;;;;19.91;60.87;98112.35;106961;1278;22520;-79
2023/05/29 08:21:25;;;;;;;6.80;3.70;;;;;;;20.13;60.44;98108.31;106675;1278;23813;-79
2023/05/29 08:23:53;;;;;;;16.50;5.00;;;;;;;20.29;59.02;98111.95;107004;1278;22520;-78
2023/05/29 08:26:21;;;;;;;8.50;4.10;;;;;;;20.36;58.61;98114.05;106620;1278;22657;-79
2023/05/29 08:28:50;;;;;;;11.40;3.90;;;;;;;20.52;59.25;98110.50;106902;1278;25933;-80
2023/05/29 08:31:18;;;;;;;7.60;4.00;;;;;;;20.75;59.27;98112.63;106927;1278;24170;-79
2023/05/29 08:33:46;;;;;;;8.50;4.00;;;;;;;20.91;58.32;98113.96;107434;1278;22520;-79
2023/05/29 08:36:14;;;;;;;13.40;4.40;;;;;;;20.97;57.86;98119.54;107057;1278;25374;-79
2023/05/29 08:38:43;;;;;;;6.70;4.20;;;;;;;20.95;56.74;98118.27;106925;1266;24174;-79
2023/05/29 08:41:17;;;;;;;8.60;3.90;;;;;;;20.90;56.74;98115.89;106955;1278;25399;-79
2023/05/29 08:43:47;;;;;;;10.80;4.10;;;;;;;20.94;56.22;98112.52;107037;1277;22516;-79
2023/05/29 08:46:18;;;;;;;10.30;4.50;;;;;;;20.89;54.91;98113.14;107201;1277;25455;-78
2023/05/29 08:48:52;;;;;;;6.30;4.50;;;;;;;20.95;55.72;98115.14;107056;1277;22576;-78
2023/05/29 08:51:23;;;;;;;9.20;3.80;;;;;;;21.11;54.20;98113.80;107037;1278;25333;-79
2023/05/29 08:53:52;;;;;;;8.50;3.50;;;;;;;21.33;54.05;98115.62;107134;1277;25407;-79
2023/05/29 08:56:22;;;;;;;9.10;3.80;;;;;;;21.53;52.74;98114.02;107226;1277;22536;-78
2023/05/29 08:59:02;;;;;;;8.40;3.80;;;;;;;21.72;52.93;98113.55;107071;1277;24107;-78
2023/05/29 09:01:36;;;;;;;4.30;3.10;;;;;;;21.94;52.82;98113.60;106968;1278;22570;-79
2023/05/29 09:04:05;;;;;;;10.30;4.20;;;;;;;22.08;51.38;98115.28;106751;1277;25349;-79
2023/05/29 09:06:33;;;;;;;8.90;4.00;;;;;;;22.14;50.61;98113.67;106873;1277;25423;-79
2023/05/29 09:09:02;;;;;;;6.00;3.10;;;;;;;22.28;50.78;98113.95;106785;1275;22473;-77
2023/05/29 09:11:30;;;;;;;8.20;3.40;;;;;;;22.45;51.32;98112.23;106812;1278;22639;-80
2023/05/29 09:13:59;;;;;;;8.60;3.40;;;;;;;22.60;50.57;98106.23;107016;1277;22551;-80
2023/05/29 09:16:27;;;;;;;12.30;4.00;;;;;;;22.75;49.96;98110.01;106903;1277;22520;-80
2023/05/29 09:19:08;;;;;;;5.40;3.40;;;;;;;22.79;48.35;98104.27;106869;1277;22643;-78
2023/05/29 09:21:40;;;;;;;13.30;3.90;;;;;;;22.85;48.77;98108.48;106800;1277;22541;-77
2023/05/29 09:24:08;;;;;;;6.30;3.00;;;;;;;22.93;49.39;98109.13;106701;1277;25350;-78
2023/05/29 09:26:37;;;;;;;8.00;3.70;;;;;;;22.98;45.76;98110.23;107182;1275;22532;-77
2023/05/29 09:29:05;;;;;;;6.80;3.80;;;;;;;22.78;43.15;98105.34;106743;1270;22564;-77
2023/05/29 09:31:38;;;;;;;7.10;2.90;;;;;;;22.67;45.28;98110.94;106808;1277;25275;-77
2023/05/29 09:34:07;;;;;;;8.40;3.30;;;;;;;22.84;45.97;98107.36;107263;1277;23948;-77
2023/05/29 09:36:37;;;;;;;9.70;3.60;;;;;;;23.05;46.10;98107.48;107179;1277;22603;-75
2023/05/29 09:39:09;;;;;;;5.80;3.50;;;;;;;23.27;45.95;98108.34;106844;1256;24240;-76
2023/05/29 09:41:45;;;;;;;7.40;3.50;;;;;;;23.43;45.36;98113.27;107065;1277;22610;-77
2023/05/29 09:44:15;;;;;;;10.00;3.40;;;;;;;23.53;45.44;98113.21;107117;1277;22769;-77
2023/05/29 09:46:43;;;;;;;7.90;3.60;;;;;;;23.64;45.29;98104.83;106732;1278;22771;-77
2023/05/29 09:49:13;;;;;;;10.00;3.30;;;;;;;23.80;45.64;98110.40;106732;1277;25271;-77
2023/05/29 09:51:42;;;;;;;9.30;3.60;;;;;;;23.88;43.79;98109.98;107163;1277;22664;-78
2023/05/29 09:54:14;;;;;;;7.50;3.30;;;;;;;23.85;43.95;98109.73;106726;1277;24100;-77
2023/05/29 09:56:43;;;;;;;6.60;3.50;;;;;;;23.83;43.31;98109.08;107128;1277;22781;-77
2023/05/29 09:59:13;;;;;;;7.60;3.50;;;;;;;23.86;43.57;98103.60;106705;1277;22626;-78
2023/05/29 10:01:43;;;;;;;9.20;4.10;;;;;;;23.95;43.33;98106.65;106762;1277;25470;-79
2023/05/29 10:04:13;;;;;;;9.60;3.80;;;;;;;24.08;43.20;98113.90;107079;1277;24246;-77
2023/05/29 10:06:48;;;;;;;7.70;3.70;;;;;;;24.10;42.58;98114.30;106834;1278;22528;-78
2023/05/29 10:09:21;;;;;;;6.50;3.80;;;;;;;24.16;43.11;98108.05;107130;1277;22530;-78
2023/05/29 10:11:50;;;;;;;10.30;3.60;;;;;;;24.27;42.68;98107.26;106752;1277;22675;-78
2023/05/29 10:14:21;;;;;;;10.50;3.90;;;;;;;24.41;42.18;98111.27;107176;1277;24308;-78
2023/05/29 10:16:50;;;;;;;7.10;3.90;;;;;;;24.45;42.32;98110.21;106750;1259;22633;-78
2023/05/29 10:19:25;;;;;;;7.80;3.60;;;;;;;24.50;41.07;98110.55;106765;1277;22787;-78
2023/05/29 10:21:55;;;;;;;7.10;3.80;;;;;;;24.33;38.31;98113.28;106712;1277;22713;-77
2023/05/29 10:24:25;;;;;;;6.00;3.90;;;;;;;23.91;38.57;98108.59;107181;1277;23909;-77
2023/05/29 10:26:55;;;;;;;5.80;3.90;;;;;;;23.69;39.54;98108.16;107253;1277;22550;-78
2023/05/29 10:29:26;;;;;;;5.40;3.30;;;;;;;23.82;39.84;98107.51;107299;1276;24070;-79
2023/05/29 10:32:10;;;;;;;8.50;3.70;;;;;;;23.97;39.80;98107.55;107233;1277;23336;-79
2023/05/29 10:35:05;;;;;;;8.00;4.00;;;;;;;23.98;37.44;98111.79;107213;1277;22487;-79
2023/05/29 10:37:33;;;;;;;8.40;4.50;;;;;;;23.98;37.68;98106.28;107088;1278;22538;-79
2023/05/29 10:40:12;;;;;;;6.20;3.40;;;;;;;24.26;39.47;98106.14;106980;1278;24066;-79
2023/05/29 10:42:41;;;;;;;7.50;3.80;;;;;;;24.52;38.95;98103.88;107075;1278;22542;-79
2023/05/29 10:45:13;;;;;;;7.00;3.60;;;;;;;24.76;39.78;98104.92;106634;1278;22524;-79
2023/05/29 10:47:40;;;;;;;12.80;3.80;;;;;;;24.98;39.85;98106.88;107068;1272;22532;-79
2023/05/29 10:50:09;;;;;;;8.10;3.70;;;;;;;24.89;38.60;98107.09;106940;1278;25327;-78
2023/05/29 10:52:47;;;;;;;9.40;3.70;;;;;;;24.50;37.86;98100.15;107011;1278;22523;-78
2023/05/29 10:55:16;;;;;;;7.30;3.80;;;;;;;24.04;39.00;98100.89;107003;1278;24966;-78
2023/05/29 10:57:48;;;;;;;10.40;3.50;;;;;;;23.83;39.00;98098.94;107007;1277;22542;-78
2023/05/29 11:00:18;;;;;;;6.00;3.50;;;;;;;23.54;38.30;98100.25;107002;1278;23252;-78
2023/05/29 11:02:48;;;;;;;7.10;3.90;;;;;;;23.08;38.60;98098.71;107025;1270;22514;-78
2023/05/29 11:05:22;;;;;;;7.50;4.00;;;;;;;22.77;38.80;98103.44;107010;1272;24293;-78
2023/05/29 11:07:55;;;;;;;10.30;3.90;;;;;;;22.61;39.36;98101.14;106752;1278;22587;-78
2023/05/29 11:10:45;;;;;;;9.80;4.10;;;;;;;22.80;39.73;98098.77;106930;1278;22864;-79
2023/05/29 11:13:31;;;;;;;9.20;3.90;;;;;;;23.29;39.89;98093.75;106963;1278;22541;-79
2023/05/29 11:16:25;;;;;;;7.10;3.60;;;;;;;23.75;39.52;98090.38;106964;1278;22517;-78
2023/05/29 11:18:53;;;;;;;9.10;4.00;;;;;;;24.15;39.66;98093.02;106963;1278;22761;-78
2023/05/29 11:21:27;;;;;;;12.00;3.60;;;;;;;24.32;38.73;98090.38;106873;1278;25224;-79
2023/05/29 11:23:57;;;;;;;;;;;;;;;24.36;38.40;98091.02;106959;1278;22664;-77
2023/05/29 11:26:27;;;;;;;9.40;3.70;;;;;;;24.38;38.10;98091.42;106964;1271;22540;-77
2023/05/29 11:29:10;;;;;;;8.90;4.00;;;;;;;24.47;38.89;98087.23;106579;1278;22532;-77
2023/05/29 11:31:40;;;;;;;7.60;3.80;;;;;;;24.81;38.52;98083.30;106594;1278;23066;-77
2023/05/29 11:34:14;;;;;;;8.00;4.00;;;;;;;25.08;38.77;98086.99;106949;1275;22606;-77
2023/05/29 11:36:43;;;;;;;5.90;3.80;;;;;;;25.37;38.31;98086.83;106559;1278;25357;-77
2023/05/29 11:39:11;;;;;;;7.50;4.00;;;;;;;25.66;38.16;98088.89;106569;1278;22522;-77